createdAt,value
2023-04-18T00:00:11.267Z,12.53
2023-04-18T00:01:09.807Z,12.04
2023-04-18T00:02:07.342Z,12.20
2023-04-18T00:03:05.012Z,12.55
2023-04-18T00:04:03.154Z,12.57
2023-04-18T00:05:00.327Z,12.63
2023-04-18T00:05:58.089Z,12.72
2023-04-18T00:06:54.912Z,12.77
2023-04-18T00:07:52.869Z,12.86
2023-04-18T00:08:49.770Z,12.89
2023-04-18T00:09:46.486Z,12.62
2023-04-18T00:10:43.216Z,12.26
2023-04-18T00:11:40.042Z,12.35
2023-04-18T00:12:36.966Z,12.21
2023-04-18T00:13:33.852Z,12.43
2023-04-18T00:14:30.595Z,12.31
2023-04-18T00:15:29.319Z,12.80
2023-04-18T00:16:27.282Z,12.65
2023-04-18T00:17:26.652Z,12.94
2023-04-18T00:18:26.612Z,12.79
2023-04-18T00:19:23.678Z,12.21
2023-04-18T00:20:20.447Z,12.56
2023-04-18T00:21:17.437Z,12.58
2023-04-18T00:22:14.645Z,11.95
2023-04-18T00:23:13.987Z,11.99
2023-04-18T00:24:11.268Z,12.00
2023-04-18T00:25:12.574Z,12.28
2023-04-18T00:26:09.435Z,12.32
2023-04-18T00:27:06.177Z,12.32
2023-04-18T00:28:02.957Z,12.42
2023-04-18T00:28:59.658Z,12.43
2023-04-18T00:29:56.411Z,12.32
2023-04-18T00:30:53.286Z,12.06
2023-04-18T00:31:50.051Z,12.10
2023-04-18T00:32:46.907Z,12.00
2023-04-18T00:33:43.749Z,12.27
2023-04-18T00:34:41.260Z,12.27
2023-04-18T00:35:38.530Z,12.17
2023-04-18T00:36:35.291Z,12.25
2023-04-18T00:37:32.055Z,12.36
2023-04-18T00:38:28.803Z,12.28
2023-04-18T00:39:25.586Z,12.08
2023-04-18T00:40:22.360Z,12.23
2023-04-18T00:41:21.581Z,11.96
2023-04-18T00:42:18.287Z,12.35
2023-04-18T00:43:16.159Z,12.75
2023-04-18T00:44:13.150Z,12.76
2023-04-18T00:45:10.661Z,12.57
2023-04-18T00:46:07.791Z,12.66
2023-04-18T00:47:04.535Z,12.44
2023-04-18T00:48:02.021Z,12.73
2023-04-18T00:48:58.993Z,12.23
2023-04-18T00:49:56.630Z,12.85
2023-04-18T00:50:54.050Z,12.93
2023-04-18T00:51:51.269Z,12.73
2023-04-18T00:52:48.535Z,12.66
2023-04-18T00:53:46.186Z,12.83
2023-04-18T00:54:44.647Z,12.78
2023-04-18T00:55:41.760Z,12.90
2023-04-18T00:56:39.039Z,12.63
2023-04-18T00:57:36.472Z,12.51
2023-04-18T00:58:33.290Z,12.79
2023-04-18T00:59:30.562Z,12.89
2023-04-18T01:00:27.467Z,12.54
2023-04-18T01:01:24.304Z,12.53
2023-04-18T01:02:21.397Z,12.67
2023-04-18T01:03:18.522Z,12.48
2023-04-18T01:04:15.882Z,12.26
2023-04-18T01:05:12.951Z,12.11
2023-04-18T01:06:09.971Z,12.11
2023-04-18T01:07:07.046Z,12.28
2023-04-18T01:08:03.784Z,12.69
2023-04-18T01:09:02.275Z,12.78
2023-04-18T01:10:00.469Z,12.32
2023-04-18T01:10:57.222Z,12.33
2023-04-18T01:11:53.960Z,12.11
2023-04-18T01:12:50.639Z,12.44
2023-04-18T01:14:04.282Z,12.45
2023-04-18T01:15:01.025Z,12.29
2023-04-18T01:15:59.036Z,12.66
2023-04-18T01:16:57.519Z,12.55
2023-04-18T01:17:54.347Z,12.47
2023-04-18T01:18:51.077Z,12.60
2023-04-18T01:19:47.962Z,12.53
2023-04-18T01:20:47.642Z,12.66
2023-04-18T01:21:44.509Z,12.65
2023-04-18T01:22:41.337Z,12.56
2023-04-18T01:23:38.334Z,12.43
2023-04-18T01:24:35.181Z,11.95
2023-04-18T01:25:32.709Z,12.03
2023-04-18T01:26:29.697Z,11.71
2023-04-18T01:27:26.420Z,11.92
2023-04-18T01:28:23.146Z,12.10
2023-04-18T01:29:19.915Z,12.30
2023-04-18T01:30:16.731Z,12.13
2023-04-18T01:31:13.606Z,12.06
2023-04-18T01:32:10.381Z,11.76
2023-04-18T01:33:07.326Z,11.32
2023-04-18T01:34:05.175Z,11.88
2023-04-18T01:35:02.103Z,11.28
2023-04-18T01:35:58.846Z,11.87
2023-04-18T01:36:55.745Z,11.95
2023-04-18T01:37:52.575Z,12.22
2023-04-18T01:38:49.294Z,12.13
2023-04-18T01:39:46.086Z,11.51
2023-04-18T01:40:42.906Z,11.71
2023-04-18T01:41:39.618Z,11.63
2023-04-18T01:42:36.518Z,11.27
2023-04-18T01:43:33.337Z,11.35
2023-04-18T01:44:30.072Z,11.58
2023-04-18T01:45:26.885Z,12.07
2023-04-18T01:46:23.668Z,12.19
2023-04-18T01:47:20.485Z,12.17
2023-04-18T01:48:17.202Z,12.50
2023-04-18T01:49:14.009Z,12.28
2023-04-18T01:50:11.032Z,12.50
2023-04-18T01:51:07.820Z,12.26
2023-04-18T01:52:04.554Z,11.89
2023-04-18T01:53:01.454Z,11.87
2023-04-18T01:53:58.227Z,11.79
2023-04-18T01:54:55.001Z,12.13
2023-04-18T01:55:51.755Z,12.36
2023-04-18T01:56:48.476Z,12.42
2023-04-18T01:57:45.362Z,11.64
2023-04-18T01:58:42.096Z,11.87
2023-04-18T01:59:38.786Z,11.82
2023-04-18T02:00:35.672Z,12.09
2023-04-18T02:01:32.426Z,11.93
2023-04-18T02:02:29.282Z,12.09
2023-04-18T02:03:26.317Z,11.74
2023-04-18T02:04:23.173Z,12.24
2023-04-18T02:05:20.049Z,11.90
2023-04-18T02:06:16.813Z,12.01
2023-04-18T02:07:13.692Z,12.40
2023-04-18T02:08:11.734Z,12.42
2023-04-18T02:09:08.465Z,12.42
2023-04-18T02:10:05.734Z,12.40
2023-04-18T02:11:02.924Z,11.91
2023-04-18T02:12:01.939Z,11.98
2023-04-18T02:12:58.771Z,11.98
2023-04-18T02:13:55.723Z,11.90
2023-04-18T02:14:53.784Z,11.97
2023-04-18T02:15:50.975Z,12.10
2023-04-18T02:16:47.797Z,12.12
2023-04-18T02:17:45.637Z,11.81
2023-04-18T02:18:43.721Z,11.99
2023-04-18T02:19:41.099Z,12.11
2023-04-18T02:20:38.424Z,12.06
2023-04-18T02:21:35.277Z,12.08
2023-04-18T02:22:32.076Z,11.81
2023-04-18T02:23:28.779Z,11.81
2023-04-18T02:24:25.544Z,12.06
2023-04-18T02:25:24.206Z,11.64
2023-04-18T02:26:21.090Z,12.17
2023-04-18T02:27:18.434Z,12.22
2023-04-18T02:28:15.209Z,11.27
2023-04-18T02:29:12.085Z,11.93
2023-04-18T02:30:09.284Z,12.37
2023-04-18T02:31:07.367Z,12.17
2023-04-18T02:32:04.395Z,12.38
2023-04-18T02:33:01.307Z,12.19
2023-04-18T02:33:58.085Z,12.22
2023-04-18T02:34:54.815Z,12.40
2023-04-18T02:35:51.553Z,12.19
2023-04-18T02:36:48.290Z,12.01
2023-04-18T02:37:45.170Z,12.27
2023-04-18T02:38:41.946Z,12.18
2023-04-18T02:39:38.699Z,12.43
2023-04-18T02:40:35.471Z,12.26
2023-04-18T02:41:32.241Z,12.38
2023-04-18T02:42:28.979Z,12.49
2023-04-18T02:43:25.709Z,12.41
2023-04-18T02:44:22.598Z,12.54
2023-04-18T02:45:19.413Z,12.47
2023-04-18T02:46:16.714Z,12.58
2023-04-18T02:47:13.493Z,12.40
2023-04-18T02:48:10.300Z,12.49
2023-04-18T02:49:07.518Z,12.39
2023-04-18T02:50:04.660Z,12.13
2023-04-18T02:51:05.542Z,11.96
2023-04-18T02:52:02.283Z,11.98
2023-04-18T02:52:59.094Z,11.99
2023-04-18T02:53:56.277Z,11.83
2023-04-18T02:54:53.109Z,12.10
2023-04-18T02:55:49.892Z,12.35
2023-04-18T02:56:46.696Z,12.55
2023-04-18T02:57:43.462Z,12.44
2023-04-18T02:58:40.210Z,12.31
2023-04-18T02:59:36.900Z,12.38
2023-04-18T03:00:34.684Z,12.07
2023-04-18T03:01:31.492Z,12.23
2023-04-18T03:02:28.337Z,12.10
2023-04-18T03:03:25.235Z,11.57
2023-04-18T03:04:22.004Z,11.90
2023-04-18T03:05:19.555Z,11.92
2023-04-18T03:06:16.301Z,12.28
2023-04-18T03:07:13.177Z,12.29
2023-04-18T03:08:09.967Z,12.47
2023-04-18T03:09:07.158Z,12.43
2023-04-18T03:10:04.199Z,12.62
2023-04-18T03:11:01.031Z,12.69
2023-04-18T03:11:57.771Z,12.44
2023-04-18T03:12:54.443Z,12.66
2023-04-18T03:13:51.375Z,12.28
2023-04-18T03:14:48.207Z,11.85
2023-04-18T03:15:44.997Z,12.42
2023-04-18T03:16:41.875Z,12.19
2023-04-18T03:17:39.483Z,12.63
2023-04-18T03:18:36.224Z,12.23
2023-04-18T03:19:33.095Z,12.75
2023-04-18T03:20:29.843Z,12.57
2023-04-18T03:21:26.759Z,12.28
2023-04-18T03:22:23.520Z,12.43
2023-04-18T03:23:20.227Z,12.63
2023-04-18T03:24:17.133Z,12.48
2023-04-18T03:25:14.159Z,12.28
2023-04-18T03:26:13.198Z,12.11
2023-04-18T03:27:10.015Z,11.91
2023-04-18T03:28:06.758Z,11.94
2023-04-18T03:29:03.525Z,11.84
2023-04-18T03:30:01.948Z,11.80
2023-04-18T03:30:59.340Z,12.33
2023-04-18T03:31:56.163Z,11.79
2023-04-18T03:32:53.767Z,12.39
2023-04-18T03:33:51.716Z,12.58
2023-04-18T03:34:49.364Z,12.21
2023-04-18T03:35:46.259Z,12.36
2023-04-18T03:36:43.568Z,12.32
2023-04-18T03:37:41.261Z,12.65
2023-04-18T03:38:40.561Z,12.53
2023-04-18T03:39:37.352Z,12.66
2023-04-18T03:40:34.133Z,12.52
2023-04-18T03:41:30.873Z,12.57
2023-04-18T03:42:27.601Z,12.48
2023-04-18T03:43:24.409Z,12.60
2023-04-18T03:44:21.235Z,12.64
2023-04-18T03:45:18.083Z,12.57
2023-04-18T03:46:15.340Z,12.65
2023-04-18T03:47:12.287Z,12.47
2023-04-18T03:48:09.041Z,12.52
2023-04-18T03:49:05.932Z,12.51
2023-04-18T03:50:02.698Z,12.47
2023-04-18T03:50:59.440Z,12.45
2023-04-18T03:51:56.181Z,11.92
2023-04-18T03:52:53.136Z,11.67
2023-04-18T03:53:49.877Z,11.97
2023-04-18T03:54:46.617Z,12.29
2023-04-18T03:55:43.596Z,12.45
2023-04-18T03:56:41.006Z,12.56
2023-04-18T03:57:37.756Z,12.53
2023-04-18T03:58:34.556Z,12.03
2023-04-18T03:59:31.286Z,12.11
2023-04-18T04:00:28.205Z,12.26
2023-04-18T04:01:25.034Z,12.35
2023-04-18T04:02:21.974Z,12.44
2023-04-18T04:03:19.635Z,12.58
2023-04-18T04:04:16.684Z,12.51
2023-04-18T04:05:13.613Z,12.57
2023-04-18T04:06:10.430Z,12.56
2023-04-18T04:07:07.239Z,12.21
2023-04-18T04:08:04.088Z,11.83
2023-04-18T04:09:01.239Z,12.32
2023-04-18T04:10:01.378Z,12.39
2023-04-18T04:10:58.176Z,12.07
2023-04-18T04:11:54.888Z,12.44
2023-04-18T04:12:51.758Z,12.41
2023-04-18T04:13:48.504Z,12.16
2023-04-18T04:14:45.316Z,12.30
2023-04-18T04:15:42.190Z,11.98
2023-04-18T04:16:39.189Z,11.71
2023-04-18T04:17:35.927Z,12.20
2023-04-18T04:18:32.694Z,12.29
2023-04-18T04:19:29.459Z,12.36
2023-04-18T04:20:26.655Z,12.39
2023-04-18T04:21:23.454Z,12.36
2023-04-18T04:22:20.326Z,12.65
2023-04-18T04:23:17.069Z,12.55
2023-04-18T04:24:14.072Z,12.66
2023-04-18T04:25:13.839Z,12.43
2023-04-18T04:26:10.839Z,12.68
2023-04-18T04:27:08.189Z,12.63
2023-04-18T04:28:06.709Z,12.48
2023-04-18T04:29:03.773Z,12.52
2023-04-18T04:30:00.847Z,12.54
2023-04-18T04:30:58.223Z,12.58
2023-04-18T04:31:55.789Z,12.31
2023-04-18T04:32:53.534Z,12.59
2023-04-18T04:33:50.346Z,12.66
2023-04-18T04:34:47.144Z,12.72
2023-04-18T04:35:43.975Z,12.80
2023-04-18T04:36:41.212Z,12.66
2023-04-18T04:37:38.750Z,12.41
2023-04-18T04:38:38.453Z,12.33
2023-04-18T04:39:35.232Z,12.20
2023-04-18T04:40:31.981Z,11.76
2023-04-18T04:41:29.442Z,11.98
2023-04-18T04:42:26.864Z,11.79
2023-04-18T04:43:24.441Z,11.91
2023-04-18T04:44:22.392Z,12.14
2023-04-18T04:45:20.029Z,12.46
2023-04-18T04:46:19.999Z,12.17
2023-04-18T04:47:16.911Z,12.09
2023-04-18T04:48:13.633Z,12.63
2023-04-18T04:49:11.773Z,12.08
2023-04-18T04:50:14.734Z,12.59
2023-04-18T04:51:11.694Z,12.60
2023-04-18T04:52:08.459Z,12.67
2023-04-18T04:53:06.472Z,12.38
2023-04-18T04:54:03.656Z,12.60
2023-04-18T04:55:00.578Z,12.89
2023-04-18T04:55:58.178Z,12.93
2023-04-18T04:56:54.947Z,12.97
2023-04-18T04:57:51.756Z,12.89
2023-04-18T04:58:49.137Z,13.15
2023-04-18T04:59:45.956Z,12.54
2023-04-18T05:00:42.738Z,12.17
2023-04-18T05:01:40.267Z,12.34
2023-04-18T05:02:37.740Z,12.47
2023-04-18T05:03:36.495Z,12.56
2023-04-18T05:04:33.518Z,12.78
2023-04-18T05:05:30.481Z,12.36
2023-04-18T05:06:27.600Z,12.67
2023-04-18T05:07:24.474Z,12.83
2023-04-18T05:08:21.191Z,12.61
2023-04-18T05:09:17.890Z,12.89
2023-04-18T05:10:14.957Z,12.61
2023-04-18T05:11:11.697Z,12.93
2023-04-18T05:12:08.632Z,12.80
2023-04-18T05:13:05.432Z,13.09
2023-04-18T05:14:02.169Z,12.88
2023-04-18T05:14:58.929Z,13.15
2023-04-18T05:15:55.679Z,13.17
2023-04-18T05:16:52.474Z,12.50
2023-04-18T05:17:49.336Z,12.36
2023-04-18T05:18:46.122Z,12.48
2023-04-18T05:19:44.259Z,12.43
2023-04-18T05:20:41.065Z,12.11
2023-04-18T05:21:37.800Z,12.41
2023-04-18T05:22:36.062Z,12.94
2023-04-18T05:23:36.927Z,13.04
2023-04-18T05:24:33.634Z,12.99
2023-04-18T05:25:31.752Z,13.33
2023-04-18T05:26:28.501Z,13.23
2023-04-18T05:27:26.698Z,11.98
2023-04-18T05:28:27.208Z,13.08
2023-04-18T05:29:24.043Z,12.85
2023-04-18T05:30:20.908Z,12.56
2023-04-18T05:31:18.216Z,12.42
2023-04-18T05:32:19.308Z,12.72
2023-04-18T05:33:17.605Z,13.21
2023-04-18T05:34:14.724Z,12.96
2023-04-18T05:35:11.679Z,13.30
2023-04-18T05:36:08.779Z,12.99
2023-04-18T05:37:05.771Z,13.34
2023-04-18T05:38:02.537Z,12.96
2023-04-18T05:38:59.332Z,12.68
2023-04-18T05:39:57.037Z,12.43
2023-04-18T05:40:55.782Z,12.78
2023-04-18T05:41:52.692Z,13.25
2023-04-18T05:42:49.542Z,12.87
2023-04-18T05:43:51.117Z,13.00
2023-04-18T05:44:59.032Z,13.16
2023-04-18T05:45:57.739Z,13.09
2023-04-18T05:46:54.989Z,13.22
2023-04-18T05:47:53.969Z,12.87
2023-04-18T05:48:51.061Z,12.93
2023-04-18T05:49:55.237Z,12.39
2023-04-18T05:50:52.100Z,11.97
2023-04-18T05:51:49.885Z,12.52
2023-04-18T05:52:46.701Z,12.73
2023-04-18T05:53:43.429Z,12.91
2023-04-18T05:54:41.149Z,13.03
2023-04-18T05:55:40.342Z,12.82
2023-04-18T05:56:37.395Z,13.06
2023-04-18T05:57:34.242Z,13.08
2023-04-18T05:58:31.012Z,12.39
2023-04-18T05:59:27.701Z,12.71
2023-04-18T06:00:25.024Z,12.69
2023-04-18T06:01:22.010Z,12.73
2023-04-18T06:02:18.830Z,12.58
2023-04-18T06:03:16.045Z,12.89
2023-04-18T06:04:13.406Z,12.87
2023-04-18T06:05:12.323Z,13.33
2023-04-18T06:06:09.682Z,13.33
2023-04-18T06:07:06.476Z,12.76
2023-04-18T06:08:03.673Z,12.86
2023-04-18T06:09:00.494Z,13.10
2023-04-18T06:09:57.176Z,13.54
2023-04-18T06:10:53.857Z,13.24
2023-04-18T06:11:50.564Z,13.01
2023-04-18T06:12:47.339Z,13.15
2023-04-18T06:13:44.114Z,13.37
2023-04-18T06:14:40.961Z,13.39
2023-04-18T06:15:37.770Z,13.11
2023-04-18T06:16:37.246Z,13.12
2023-04-18T06:17:35.014Z,13.39
2023-04-18T06:18:32.363Z,13.58
2023-04-18T06:19:29.150Z,13.41
2023-04-18T06:20:26.110Z,13.64
2023-04-18T06:21:22.909Z,13.33
2023-04-18T06:22:19.766Z,13.33
2023-04-18T06:23:16.898Z,13.40
2023-04-18T06:24:14.306Z,13.65
2023-04-18T06:25:11.449Z,13.56
2023-04-18T06:26:09.297Z,12.65
2023-04-18T06:27:06.154Z,12.83
2023-04-18T06:28:02.901Z,13.01
2023-04-18T06:28:59.667Z,13.02
2023-04-18T06:29:56.404Z,13.58
2023-04-18T06:30:53.180Z,13.69
2023-04-18T06:31:50.742Z,13.98
2023-04-18T06:32:48.148Z,14.22
2023-04-18T06:33:44.978Z,14.25
2023-04-18T06:34:41.749Z,13.07
2023-04-18T06:35:38.814Z,13.65
2023-04-18T06:36:35.560Z,13.68
2023-04-18T06:37:32.301Z,14.24
2023-04-18T06:38:29.177Z,14.00
2023-04-18T06:39:27.887Z,14.10
2023-04-18T06:40:24.556Z,14.19
2023-04-18T06:41:21.312Z,14.05
2023-04-18T06:42:19.667Z,13.83
2023-04-18T06:43:17.635Z,13.23
2023-04-18T06:44:14.668Z,13.36
2023-04-18T06:45:12.169Z,13.52
2023-04-18T06:46:09.024Z,13.57
2023-04-18T06:47:06.090Z,13.58
2023-04-18T06:48:04.242Z,13.87
2023-04-18T06:49:01.255Z,13.83
2023-04-18T06:49:58.078Z,13.53
2023-04-18T06:50:54.832Z,14.04
2023-04-18T06:51:51.542Z,14.06
2023-04-18T06:52:48.352Z,13.83
2023-04-18T06:53:46.070Z,13.71
2023-04-18T06:54:42.814Z,13.80
2023-04-18T06:55:40.813Z,14.00
2023-04-18T06:56:37.839Z,14.20
2023-04-18T06:57:34.761Z,14.18
2023-04-18T06:58:31.647Z,13.89
2023-04-18T06:59:28.355Z,13.87
2023-04-18T07:00:25.182Z,14.29
2023-04-18T07:01:21.997Z,14.28
2023-04-18T07:02:18.869Z,14.63
2023-04-18T07:03:15.882Z,14.72
2023-04-18T07:04:13.139Z,14.71
2023-04-18T07:05:10.683Z,14.94
2023-04-18T07:06:08.921Z,14.27
2023-04-18T07:07:05.770Z,13.84
2023-04-18T07:08:02.805Z,13.97
2023-04-18T07:09:00.940Z,13.87
2023-04-18T07:09:57.694Z,14.40
2023-04-18T07:10:54.468Z,14.46
2023-04-18T07:11:52.613Z,14.64
2023-04-18T07:12:49.321Z,14.82
2023-04-18T07:13:47.371Z,15.03
2023-04-18T07:14:44.115Z,15.16
2023-04-18T07:15:41.801Z,15.34
2023-04-18T07:16:38.668Z,15.25
2023-04-18T07:17:35.575Z,14.72
2023-04-18T07:18:38.133Z,14.30
2023-04-18T07:19:35.391Z,14.22
2023-04-18T07:20:32.170Z,14.73
2023-04-18T07:21:28.996Z,14.96
2023-04-18T07:22:26.164Z,14.84
2023-04-18T07:23:22.984Z,15.04
2023-04-18T07:24:19.900Z,15.14
2023-04-18T07:25:16.744Z,15.26
2023-04-18T07:26:13.730Z,14.31
2023-04-18T07:27:10.501Z,14.96
2023-04-18T07:28:07.248Z,14.88
2023-04-18T07:29:04.378Z,15.00
2023-04-18T07:30:01.221Z,14.94
2023-04-18T07:30:59.062Z,14.74
2023-04-18T07:31:55.861Z,14.74
2023-04-18T07:32:52.712Z,15.00
2023-04-18T07:33:49.519Z,15.03
2023-04-18T07:34:47.082Z,15.22
2023-04-18T07:35:46.080Z,15.44
2023-04-18T07:36:42.897Z,15.50
2023-04-18T07:37:39.758Z,15.64
2023-04-18T07:38:36.666Z,15.26
2023-04-18T07:39:36.090Z,15.28
2023-04-18T07:40:33.004Z,15.47
2023-04-18T07:41:29.810Z,15.06
2023-04-18T07:42:26.883Z,14.46
2023-04-18T07:43:23.714Z,14.68
2023-04-18T07:44:21.890Z,14.52
2023-04-18T07:45:19.190Z,14.28
2023-04-18T07:46:16.043Z,14.64
2023-04-18T07:47:12.885Z,14.68
2023-04-18T07:48:09.701Z,15.06
2023-04-18T07:49:06.816Z,14.82
2023-04-18T07:50:04.016Z,15.34
2023-04-18T07:51:00.836Z,15.21
2023-04-18T07:51:57.773Z,14.69
2023-04-18T07:52:54.540Z,15.21
2023-04-18T07:53:51.351Z,15.34
2023-04-18T07:54:48.074Z,15.07
2023-04-18T07:55:45.960Z,15.20
2023-04-18T07:56:42.724Z,15.29
2023-04-18T07:57:39.564Z,15.20
2023-04-18T07:58:36.314Z,15.01
2023-04-18T07:59:33.121Z,14.93
2023-04-18T08:00:32.663Z,15.14
2023-04-18T08:01:29.481Z,14.89
2023-04-18T08:02:26.336Z,14.79
2023-04-18T08:03:23.412Z,15.28
2023-04-18T08:04:20.573Z,15.33
2023-04-18T08:05:19.714Z,15.39
2023-04-18T08:06:17.031Z,15.23
2023-04-18T08:07:13.812Z,15.21
2023-04-18T08:08:12.056Z,15.15
2023-04-18T08:09:09.223Z,14.35
2023-04-18T08:10:06.621Z,14.05
2023-04-18T08:11:03.834Z,14.31
2023-04-18T08:12:00.701Z,14.53
2023-04-18T08:12:57.536Z,15.15
2023-04-18T08:13:54.275Z,15.34
2023-04-18T08:14:51.056Z,15.43
2023-04-18T08:15:48.126Z,14.95
2023-04-18T08:16:47.781Z,14.91
2023-04-18T08:17:45.349Z,15.13
2023-04-18T08:18:42.087Z,15.21
2023-04-18T08:19:38.896Z,15.17
2023-04-18T08:20:37.287Z,15.27
2023-04-18T08:21:34.104Z,15.39
2023-04-18T08:22:30.900Z,15.36
2023-04-18T08:23:27.680Z,15.49
2023-04-18T08:24:24.489Z,14.80
2023-04-18T08:25:21.232Z,15.48
2023-04-18T08:26:18.238Z,15.59
2023-04-18T08:27:15.072Z,15.06
2023-04-18T08:28:13.160Z,14.72
2023-04-18T08:29:09.983Z,14.44
2023-04-18T08:30:07.527Z,14.48
2023-04-18T08:31:04.513Z,14.62
2023-04-18T08:32:01.359Z,15.21
2023-04-18T08:32:59.673Z,15.52
2023-04-18T08:33:56.472Z,15.53
2023-04-18T08:34:53.433Z,15.70
2023-04-18T08:35:51.598Z,15.82
2023-04-18T08:36:48.342Z,15.71
2023-04-18T08:37:45.138Z,16.19
2023-04-18T08:38:42.039Z,16.32
2023-04-18T08:39:38.820Z,15.55
2023-04-18T08:40:35.684Z,15.97
2023-04-18T08:41:37.884Z,16.36
2023-04-18T08:42:36.431Z,16.36
2023-04-18T08:43:33.299Z,16.27
2023-04-18T08:44:30.638Z,16.77
2023-04-18T08:45:28.756Z,16.81
2023-04-18T08:46:26.472Z,16.68
2023-04-18T08:47:23.809Z,16.60
2023-04-18T08:48:20.520Z,16.08
2023-04-18T08:49:17.767Z,15.99
2023-04-18T08:50:16.605Z,15.88
2023-04-18T08:51:13.401Z,16.43
2023-04-18T08:52:13.508Z,16.38
2023-04-18T08:53:11.122Z,16.80
2023-04-18T08:54:09.457Z,16.67
2023-04-18T08:55:07.401Z,16.85
2023-04-18T08:56:05.516Z,16.94
2023-04-18T08:57:12.551Z,16.81
2023-04-18T08:58:09.330Z,16.09
2023-04-18T08:59:06.051Z,16.47
2023-04-18T09:00:10.178Z,15.97
2023-04-18T09:01:07.858Z,15.68
2023-04-18T09:02:08.865Z,16.27
2023-04-18T09:03:06.819Z,16.48
2023-04-18T09:04:03.850Z,16.03
2023-04-18T09:05:00.670Z,15.91
2023-04-18T09:06:18.857Z,15.72
2023-04-18T09:07:16.981Z,15.76
2023-04-18T09:08:24.354Z,15.73
2023-04-18T09:09:27.400Z,15.23
2023-04-18T09:10:28.880Z,15.44
2023-04-18T09:11:31.629Z,15.56
2023-04-18T09:12:29.493Z,15.67
2023-04-18T09:13:39.859Z,15.52
2023-04-18T09:14:37.520Z,15.74
2023-04-18T09:15:34.427Z,15.26
2023-04-18T09:16:47.046Z,15.10
2023-04-18T09:17:49.443Z,15.19
2023-04-18T09:19:10.417Z,15.37
2023-04-18T09:20:12.440Z,15.36
2023-04-18T09:21:20.377Z,14.95
2023-04-18T09:22:18.097Z,14.97
2023-04-18T09:23:24.658Z,15.66
2023-04-18T09:24:24.981Z,15.55
2023-04-18T09:25:30.082Z,15.35
2023-04-18T09:26:34.887Z,14.91
2023-04-18T09:27:35.496Z,14.84
2023-04-18T09:28:33.808Z,14.88
2023-04-18T09:29:47.173Z,14.97
2023-04-18T09:30:44.228Z,15.05
2023-04-18T09:32:01.703Z,15.06
2023-04-18T09:33:07.538Z,14.86
2023-04-18T09:34:05.366Z,14.84
2023-04-18T09:35:04.938Z,14.56
2023-04-18T09:36:22.871Z,14.94
2023-04-18T09:37:20.666Z,15.08
2023-04-18T09:38:17.576Z,14.85
2023-04-18T09:39:27.902Z,15.06
2023-04-18T09:40:24.805Z,14.89
2023-04-18T09:41:23.564Z,14.90
2023-04-18T09:42:21.288Z,15.01
2023-04-18T09:43:21.414Z,15.04
2023-04-18T09:44:20.356Z,15.15
2023-04-18T09:45:17.415Z,15.17
2023-04-18T09:46:15.358Z,14.66
2023-04-18T09:47:12.125Z,14.91
2023-04-18T09:48:08.921Z,15.23
2023-04-18T09:49:05.737Z,15.31
2023-04-18T09:50:07.513Z,15.47
2023-04-18T09:51:16.103Z,15.11
2023-04-18T09:52:13.031Z,15.01
2023-04-18T09:53:13.373Z,14.66
2023-04-18T09:54:17.290Z,14.92
2023-04-18T09:55:17.030Z,14.99
2023-04-18T09:56:34.541Z,14.89
2023-04-18T09:57:33.583Z,14.78
2023-04-18T09:58:34.379Z,14.43
2023-04-18T09:59:44.032Z,14.76
2023-04-18T10:00:41.712Z,14.78
2023-04-18T10:01:41.098Z,14.78
2023-04-18T10:02:48.257Z,14.96
2023-04-18T10:03:47.919Z,14.65
2023-04-18T10:04:47.401Z,14.49
2023-04-18T10:05:45.993Z,14.25
2023-04-18T10:06:46.459Z,14.82
2023-04-18T10:07:46.251Z,15.03
2023-04-18T10:08:45.708Z,15.45
2023-04-18T10:09:45.531Z,15.46
2023-04-18T10:10:43.366Z,15.17
2023-04-18T10:11:40.977Z,14.69
2023-04-18T10:12:38.891Z,14.42
2023-04-18T10:13:41.696Z,15.22
2023-04-18T10:14:43.142Z,15.08
2023-04-18T10:15:42.305Z,15.67
2023-04-18T10:16:45.560Z,15.62
2023-04-18T10:18:03.726Z,15.33
2023-04-18T10:19:26.267Z,15.02
2023-04-18T10:20:27.105Z,15.18
2023-04-18T10:21:23.928Z,15.66
2023-04-18T10:22:28.120Z,15.28
2023-04-18T10:23:38.295Z,15.81
2023-04-18T10:24:48.192Z,16.26
2023-04-18T10:25:49.436Z,16.51
2023-04-18T10:26:50.362Z,16.48
2023-04-18T10:27:57.433Z,16.56
2023-04-18T10:28:59.476Z,15.97
2023-04-18T10:29:56.665Z,15.85
2023-04-18T10:31:05.546Z,16.03
2023-04-18T10:32:07.118Z,16.13
2023-04-18T10:33:36.108Z,16.51
2023-04-18T10:34:39.047Z,16.56
2023-04-18T10:35:36.157Z,16.07
2023-04-18T10:36:33.528Z,16.43
2023-04-18T10:37:32.063Z,16.63
2023-04-18T10:38:29.275Z,16.67
2023-04-18T10:39:26.401Z,16.40
2023-04-18T10:40:35.552Z,16.57
2023-04-18T10:41:34.315Z,16.38
2023-04-18T10:42:52.562Z,16.16
2023-04-18T10:44:08.452Z,16.63
2023-04-18T10:45:18.487Z,16.46
2023-04-18T10:46:30.358Z,16.48
2023-04-18T10:47:28.998Z,16.46
2023-04-18T10:48:30.266Z,17.06
2023-04-18T10:49:32.118Z,16.34
2023-04-18T10:50:29.711Z,16.53
2023-04-18T10:51:26.614Z,16.24
2023-04-18T10:52:23.747Z,16.49
2023-04-18T10:53:20.604Z,16.32
2023-04-18T10:54:37.690Z,16.67
2023-04-18T10:55:34.878Z,15.53
2023-04-18T10:56:31.792Z,16.15
2023-04-18T10:57:46.406Z,16.56
2023-04-18T10:58:50.527Z,16.39
2023-04-18T10:59:52.530Z,16.91
2023-04-18T11:00:52.027Z,17.10
2023-04-18T11:01:53.723Z,17.20
2023-04-18T11:02:56.564Z,16.99
2023-04-18T11:03:55.005Z,16.96
2023-04-18T11:04:54.481Z,16.96
2023-04-18T11:05:51.240Z,16.15
2023-04-18T11:06:50.258Z,16.20
2023-04-18T11:07:48.817Z,16.46
2023-04-18T11:08:45.616Z,16.69
2023-04-18T11:09:51.098Z,16.02
2023-04-18T11:11:09.465Z,16.72
2023-04-18T11:12:09.220Z,16.59
2023-04-18T11:13:06.672Z,15.85
2023-04-18T11:14:03.442Z,16.31
2023-04-18T11:15:02.063Z,16.59
2023-04-18T11:15:58.968Z,16.72
2023-04-18T11:16:55.862Z,16.49
2023-04-18T11:18:11.053Z,16.62
2023-04-18T11:19:23.293Z,16.70
2023-04-18T11:20:20.064Z,16.06
2023-04-18T11:21:16.970Z,16.17
2023-04-18T11:22:14.932Z,16.26
2023-04-18T11:23:25.025Z,16.29
2023-04-18T11:24:23.371Z,16.23
2023-04-18T11:25:24.776Z,16.33
2023-04-18T11:26:25.967Z,16.59
2023-04-18T11:27:25.932Z,16.16
2023-04-18T11:28:24.999Z,16.44
2023-04-18T11:29:22.153Z,16.50
2023-04-18T11:30:19.347Z,16.58
2023-04-18T11:31:16.391Z,16.70
2023-04-18T11:32:13.164Z,16.52
2023-04-18T11:33:13.512Z,16.47
2023-04-18T11:34:10.366Z,16.86
2023-04-18T11:35:12.263Z,16.50
2023-04-18T11:36:09.309Z,16.61
2023-04-18T11:37:08.085Z,16.15
2023-04-18T11:38:05.866Z,16.07
2023-04-18T11:39:02.754Z,16.01
2023-04-18T11:39:59.640Z,16.15
2023-04-18T11:40:56.608Z,16.24
2023-04-18T11:41:56.050Z,16.38
2023-04-18T11:42:55.482Z,15.99
2023-04-18T11:43:52.240Z,15.61
2023-04-18T11:44:49.343Z,16.01
2023-04-18T11:45:59.900Z,16.19
2023-04-18T11:46:56.817Z,15.90
2023-04-18T11:47:59.674Z,15.77
2023-04-18T11:48:56.528Z,16.15
2023-04-18T11:50:07.810Z,16.00
2023-04-18T11:51:06.598Z,15.99
2023-04-18T11:52:13.310Z,16.03
2023-04-18T11:53:09.977Z,15.94
2023-04-18T11:54:27.027Z,16.15
2023-04-18T11:55:27.137Z,16.30
2023-04-18T11:56:24.032Z,16.47
2023-04-18T11:57:29.145Z,16.27
2023-04-18T11:58:34.163Z,16.38
2023-04-18T11:59:31.088Z,16.44
2023-04-18T12:00:37.474Z,16.15
2023-04-18T12:01:34.188Z,16.55
2023-04-18T12:02:46.352Z,16.53
2023-04-18T12:03:45.430Z,16.48
2023-04-18T12:04:53.297Z,17.14
2023-04-18T12:06:00.780Z,17.00
2023-04-18T12:06:58.471Z,16.31
2023-04-18T12:07:55.967Z,16.74
2023-04-18T12:08:59.913Z,16.96
2023-04-18T12:09:56.665Z,17.14
2023-04-18T12:10:55.172Z,16.93
2023-04-18T12:11:59.946Z,16.77
2023-04-18T12:13:18.516Z,16.44
2023-04-18T12:14:22.441Z,15.71
2023-04-18T12:15:20.122Z,15.89
2023-04-18T12:16:16.981Z,16.30
2023-04-18T12:17:13.846Z,16.22
2023-04-18T12:18:18.073Z,16.17
2023-04-18T12:19:15.062Z,16.46
2023-04-18T12:20:13.390Z,16.22
2023-04-18T12:21:10.447Z,16.33
2023-04-18T12:22:08.012Z,15.64
2023-04-18T12:23:05.656Z,15.98
2023-04-18T12:24:15.354Z,15.99
2023-04-18T12:25:26.887Z,14.78
2023-04-18T12:26:24.382Z,15.00
2023-04-18T12:27:21.233Z,15.48
2023-04-18T12:28:19.940Z,15.54
2023-04-18T12:29:17.405Z,15.41
2023-04-18T12:30:15.736Z,15.41
2023-04-18T12:31:12.961Z,15.56
2023-04-18T12:32:09.827Z,15.39
2023-04-18T12:33:06.762Z,15.20
2023-04-18T12:34:03.622Z,14.84